CheckWX is a tool to help pilots better visualize weather data.  It is not intended as a substitute for an official pre-flight weather briefing.

18:21:02 UTC

KGRR TAF
Gerald R Ford International Airport
Grand Rapids, Michigan, USA
KGRR 201740Z 2018/2118 21005KT P6SM SCT070 BKN250 FM210100 16004KT P6SM SCT050 BKN250 FM211500 21012G20KT P6SM BKN045 OVC150

Sep-20@
18:00 UTC

Sep-20 @ 18:00 UTC

Sep-21@
01:00 UTC

Sep-21 @ 01:00 UTC

KGRR 201740Z 2018/2118 21005KT P6SM SCT070 BKN250
Wind
  • 210° at 5 KTS
Cloud Levels
  • Scattered at 7,000' AGL
  • Broken at 25,000' AGL

Sep-21@
01:00 UTC

Sep-21 @ 01:00 UTC

Sep-21@
15:00 UTC

Sep-21 @ 15:00 UTC

FM210100 16004KT P6SM SCT050 BKN250

From

From Standard forecast or significant change

Wind
  • 160° at 4 KTS
Cloud Levels
  • Scattered at 5,000' AGL
  • Broken at 25,000' AGL

Sep-21@
15:00 UTC

Sep-21 @ 15:00 UTC

Sep-21@
18:00 UTC

Sep-21 @ 18:00 UTC

FM211500 21012G20KT P6SM BKN045 OVC150

From

From Standard forecast or significant change

Wind
  • 210° at 12 KTS
  • {Gusting to 20 KTS
Cloud Levels
  • Broken at 4,500' AGL
  • Overcast at 15,000' AGL